Faringdon, United Kingdom
Current Conditions -  °F | °C
As of 3:50 AM on Friday 31 Oct 2014 (Local Time) from EGVN Reporting Station
Haze Haze  
Wind Chill: 55°   Ceiling: 24000
Heat Index: 55°   Visibility: 1.2mi
Dew Point: 55°   Wind: 5mph
Humidity: 100%   Direction: 180°S
Pressure: 30"   Gusts: NA
Location:  51.66°N, 1.59°W
Report Text: EGVN 310350Z 18004KT 2000 BR FEW006 BKN240 13/13 Q1016 YLO2 TEMPO SCT007 YLO2
Loading
Personal Weather Stations






























Interactive Weather Map
Tropical Storm Tracking
New forecast layout! Learn more

10-Day Weather Forecast

Advertisements
Track Severe Weather on mobile